Time;durP1;ratioP1;P1;durP2;ratioP2;P2;SDS_P1;SDS_P2;PMS_P1;PMS_P2;Temp;Humidity;BMP_temperature;BMP_pressure;BME280_temperature;BME280_humidity;BME280_pressure;Samples;Min_cycle;Max_cycle;Signal;HPM_P1;HPM_P2
2023/02/17 00:00:15;;;;;;;6.93;3.57;;;;;;;;;;5008654;28;20289;-73
2023/02/17 00:02:41;;;;;;;5.53;3.42;;;;;;;;;;5003624;28;20309;-73
2023/02/17 00:05:06;;;;;;;6.73;3.03;;;;;;;;;;5006102;28;20148;-73
2023/02/17 00:07:32;;;;;;;11.40;3.78;;;;;;;;;;5009080;28;20068;-72
2023/02/17 00:09:57;;;;;;;8.23;4.00;;;;;;;;;;5006915;28;20025;-73
2023/02/17 00:12:23;;;;;;;7.32;3.38;;;;;;;;;;5006515;28;20033;-76
2023/02/17 00:14:48;;;;;;;9.18;3.55;;;;;;;;;;4998611;28;20689;-73
2023/02/17 00:17:13;;;;;;;8.17;3.70;;;;;;;;;;5006712;28;20018;-68
2023/02/17 00:19:38;;;;;;;10.00;3.30;;;;;;;;;;5005701;28;20285;-69
2023/02/17 00:22:03;;;;;;;6.80;3.47;;;;;;;;;;5005728;28;20285;-69
2023/02/17 00:24:31;;;;;;;5.93;3.40;;;;;;;;;;5001535;28;20028;-73
2023/02/17 00:26:56;;;;;;;8.27;3.33;;;;;;;;;;4996040;28;20458;-70
2023/02/17 00:29:21;;;;;;;9.38;3.95;;;;;;;;;;5007183;28;20053;-72
2023/02/17 00:31:47;;;;;;;7.67;3.83;;;;;;;;;;5006787;28;20383;-71
2023/02/17 00:34:12;;;;;;;6.35;3.63;;;;;;;;;;5009939;28;20645;-74
2023/02/17 00:36:38;;;;;;;7.40;3.88;;;;;;;;;;4997857;28;20473;-75
2023/02/17 00:39:04;;;;;;;8.48;3.38;;;;;;;;;;4996248;28;20138;-75
2023/02/17 00:41:29;;;;;;;5.05;3.22;;;;;;;;;;4997968;28;20034;-76
2023/02/17 00:43:54;;;;;;;7.83;3.30;;;;;;;;;;5000745;28;20532;-79
2023/02/17 00:46:20;;;;;;;6.13;3.20;;;;;;;;;;5002712;28;20823;-77
2023/02/17 00:48:46;;;;;;;6.97;3.15;;;;;;;;;;5004294;28;20648;-76
2023/02/17 00:51:11;;;;;;;6.15;3.35;;;;;;;;;;5010496;28;20068;-76
2023/02/17 00:53:36;;;;;;;10.13;3.60;;;;;;;;;;5008855;28;20447;-78
2023/02/17 00:56:02;;;;;;;7.85;3.65;;;;;;;;;;4997687;28;20563;-71
2023/02/17 00:58:27;;;;;;;6.07;3.40;;;;;;;;;;5000346;28;20026;-71
2023/02/17 01:00:54;;;;;;;9.93;4.05;;;;;;;;;;5003396;28;20021;-72
2023/02/17 01:03:20;;;;;;;8.60;3.50;;;;;;;;;;5007873;28;20039;-71
2023/02/17 01:05:46;;;;;;;7.80;3.50;;;;;;;;;;5004640;28;20121;-70
2023/02/17 01:08:11;;;;;;;5.47;3.00;;;;;;;;;;5006642;28;20281;-72
2023/02/17 01:10:37;;;;;;;5.57;2.90;;;;;;;;;;5000971;28;20830;-73
2023/02/17 01:13:03;;;;;;;6.65;3.33;;;;;;;;;;5001570;28;20026;-77
2023/02/17 01:15:28;;;;;;;6.45;3.17;;;;;;;;;;5002227;28;20017;-70
2023/02/17 01:17:53;;;;;;;6.67;3.20;;;;;;;;;;5002636;28;20034;-70
2023/02/17 01:20:19;;;;;;;5.90;3.23;;;;;;;;;;5004728;28;20291;-71
2023/02/17 01:22:44;;;;;;;6.77;3.43;;;;;;;;;;5010761;28;20280;-74
2023/02/17 01:25:09;;;;;;;8.60;3.10;;;;;;;;;;5013077;28;20279;-71
2023/02/17 01:27:35;;;;;;;6.78;3.35;;;;;;;;;;4999838;28;20428;-70
2023/02/17 01:30:00;;;;;;;7.22;3.35;;;;;;;;;;4998903;28;20054;-78
2023/02/17 01:32:25;;;;;;;6.03;3.00;;;;;;;;;;5008732;28;20065;-70
2023/02/17 01:34:50;;;;;;;6.10;2.92;;;;;;;;;;5013857;28;20591;-75
2023/02/17 01:37:16;;;;;;;9.23;3.13;;;;;;;;;;5004788;28;20023;-71
2023/02/17 01:39:41;;;;;;;9.87;3.67;;;;;;;;;;5001797;28;20030;-71
2023/02/17 01:42:11;;;;;;;6.93;3.43;;;;;;;;;;5007019;28;20026;-72
2023/02/17 01:44:56;;;;;;;10.70;3.60;;;;;;;;;;5003310;28;20280;-72
2023/02/17 01:47:21;;;;;;;5.47;2.72;;;;;;;;;;5004647;28;21528;-71
2023/02/17 01:49:47;;;;;;;7.50;3.33;;;;;;;;;;5008014;28;20465;-72
2023/02/17 01:52:16;;;;;;;5.13;3.10;;;;;;;;;;5006031;28;20280;-74
2023/02/17 01:54:44;;;;;;;7.35;3.88;;;;;;;;;;5004803;28;20276;-73
2023/02/17 01:57:10;;;;;;;6.00;3.05;;;;;;;;;;5015770;28;20022;-73
2023/02/17 01:59:35;;;;;;;5.25;3.13;;;;;;;;;;4999064;28;21451;-74
2023/02/17 02:02:02;;;;;;;7.70;3.38;;;;;;;;;;5005800;28;20029;-74
2023/02/17 02:04:29;;;;;;;6.60;2.95;;;;;;;;;;5001642;28;20018;-74
2023/02/17 02:06:54;;;;;;;7.13;3.30;;;;;;;;;;4999640;28;20065;-75
2023/02/17 02:09:21;;;;;;;6.20;3.70;;;;;;;;;;5001375;28;20056;-71
2023/02/17 02:11:47;;;;;;;7.03;3.13;;;;;;;;;;5007078;28;20032;-70
2023/02/17 02:14:12;;;;;;;4.63;2.58;;;;;;;;;;5001481;28;20018;-69
2023/02/17 02:16:44;;;;;;;6.85;3.55;;;;;;;;;;4997225;28;20205;-71
2023/02/17 02:19:24;;;;;;;7.18;2.88;;;;;;;;;;5008770;28;20018;-71
2023/02/17 02:22:04;;;;;;;5.38;2.67;;;;;;;;;;5009433;28;20014;-70
2023/02/17 02:24:32;;;;;;;10.70;4.10;;;;;;;;;;5006407;28;20034;-75
2023/02/17 02:27:20;;;;;;;4.47;2.97;;;;;;;;;;5000703;28;20073;-74
2023/02/17 02:30:04;;;;;;;7.32;3.40;;;;;;;;;;5014238;28;20509;-74
2023/02/17 02:32:47;;;;;;;5.22;2.70;;;;;;;;;;5006044;28;20029;-73
2023/02/17 02:35:19;;;;;;;8.80;2.80;;;;;;;;;;4998452;28;20018;-74
2023/02/17 02:37:48;;;;;;;13.00;3.03;;;;;;;;;;5007561;28;20477;-75
2023/02/17 02:40:15;;;;;;;9.85;3.40;;;;;;;;;;5005647;28;20014;-73
2023/02/17 02:42:41;;;;;;;5.80;3.17;;;;;;;;;;5004575;28;20041;-76
2023/02/17 02:45:07;;;;;;;6.93;2.85;;;;;;;;;;5009166;28;20585;-78
2023/02/17 02:47:33;;;;;;;5.15;2.80;;;;;;;;;;5009414;28;20029;-70
2023/02/17 02:49:58;;;;;;;7.47;3.90;;;;;;;;;;5006689;28;20037;-70
2023/02/17 02:52:32;;;;;;;5.40;2.53;;;;;;;;;;5008520;28;20077;-72
2023/02/17 02:55:00;;;;;;;10.90;4.75;;;;;;;;;;5010996;28;20504;-70
2023/02/17 02:57:40;;;;;;;5.05;2.97;;;;;;;;;;5000472;28;20073;-71
2023/02/17 03:00:09;;;;;;;8.70;2.83;;;;;;;;;;5009431;28;20024;-70
2023/02/17 03:02:43;;;;;;;7.20;3.20;;;;;;;;;;5009165;28;20202;-77
2023/02/17 03:05:08;;;;;;;9.20;2.97;;;;;;;;;;5012676;28;20036;-75
2023/02/17 03:07:39;;;;;;;9.60;3.60;;;;;;;;;;5014769;28;20033;-74
2023/02/17 03:10:05;;;;;;;10.00;3.47;;;;;;;;;;5007158;28;20097;-74
2023/02/17 03:12:31;;;;;;;4.57;3.00;;;;;;;;;;5009077;28;20561;-74
2023/02/17 03:14:59;;;;;;;5.93;2.80;;;;;;;;;;5005210;28;20489;-77
2023/02/17 03:17:25;;;;;;;4.50;2.63;;;;;;;;;;5009610;28;20061;-73
2023/02/17 03:19:50;;;;;;;6.97;3.17;;;;;;;;;;5005594;28;20022;-71
2023/02/17 03:22:23;;;;;;;9.20;3.03;;;;;;;;;;5008902;28;20117;-69
2023/02/17 03:24:48;;;;;;;6.10;2.90;;;;;;;;;;5004948;28;20285;-70
2023/02/17 03:27:13;;;;;;;7.53;3.47;;;;;;;;;;5006079;28;20436;-70
2023/02/17 03:29:39;;;;;;;6.03;2.80;;;;;;;;;;5010279;28;20037;-70
2023/02/17 03:32:04;;;;;;;6.63;2.83;;;;;;;;;;5017640;28;20373;-72
2023/02/17 03:34:29;;;;;;;5.82;2.97;;;;;;;;;;5012737;28;20497;-71
2023/02/17 03:36:55;;;;;;;6.53;3.35;;;;;;;;;;5002906;28;20792;-70
2023/02/17 03:39:20;;;;;;;6.40;3.20;;;;;;;;;;5016365;28;20049;-72
2023/02/17 03:41:45;;;;;;;11.27;3.67;;;;;;;;;;5006874;28;20026;-77
2023/02/17 03:44:10;;;;;;;5.82;2.83;;;;;;;;;;5003885;28;20280;-76
2023/02/17 03:46:37;;;;;;;6.50;3.35;;;;;;;;;;5000548;28;20048;-78
2023/02/17 03:49:03;;;;;;;5.28;2.40;;;;;;;;;;5004624;28;20048;-78
2023/02/17 03:51:28;;;;;;;6.70;2.83;;;;;;;;;;4996203;28;20029;-76
2023/02/17 03:53:53;;;;;;;5.53;2.80;;;;;;;;;;5005521;28;20272;-77
2023/02/17 03:56:19;;;;;;;7.50;3.03;;;;;;;;;;5002613;28;20276;-75
2023/02/17 03:58:44;;;;;;;6.05;2.65;;;;;;;;;;5003836;28;20025;-69
2023/02/17 04:01:10;;;;;;;8.00;2.83;;;;;;;;;;5006444;28;20023;-69
2023/02/17 04:03:36;;;;;;;8.48;3.08;;;;;;;;;;5013765;28;20026;-71
2023/02/17 04:06:01;;;;;;;5.63;3.30;;;;;;;;;;5007385;28;20026;-70
2023/02/17 04:08:27;;;;;;;6.05;2.83;;;;;;;;;;4998801;28;20025;-70
2023/02/17 04:10:53;;;;;;;7.65;2.95;;;;;;;;;;5006678;28;20025;-70
2023/02/17 04:13:18;;;;;;;7.93;3.58;;;;;;;;;;5004651;28;20060;-69
2023/02/17 04:15:43;;;;;;;7.22;2.85;;;;;;;;;;5002382;28;20481;-72
2023/02/17 04:18:08;;;;;;;4.80;2.80;;;;;;;;;;5005743;28;20031;-72
2023/02/17 04:20:34;;;;;;;8.97;3.77;;;;;;;;;;5000464;28;20409;-73
2023/02/17 04:22:59;;;;;;;6.97;2.80;;;;;;;;;;4996520;28;20381;-73
2023/02/17 04:25:24;;;;;;;7.23;2.97;;;;;;;;;;5005202;28;20794;-71
2023/02/17 04:27:49;;;;;;;5.47;3.25;;;;;;;;;;5007208;28;20053;-73
2023/02/17 04:30:15;;;;;;;6.40;3.03;;;;;;;;;;5006337;28;20036;-72
2023/02/17 04:32:40;;;;;;;5.57;3.00;;;;;;;;;;5004228;28;20284;-71
2023/02/17 04:35:05;;;;;;;6.30;2.95;;;;;;;;;;5006300;28;20018;-73
2023/02/17 04:37:30;;;;;;;6.50;3.53;;;;;;;;;;5009044;28;20538;-75
2023/02/17 04:39:56;;;;;;;4.83;3.20;;;;;;;;;;5005202;28;20457;-74
2023/02/17 04:42:21;;;;;;;7.30;3.10;;;;;;;;;;5010876;28;20799;-75
2023/02/17 04:44:46;;;;;;;10.07;3.70;;;;;;;;;;5003132;28;20080;-75
2023/02/17 04:47:11;;;;;;;9.13;3.57;;;;;;;;;;5006646;28;20301;-73
2023/02/17 04:49:36;;;;;;;7.33;2.40;;;;;;;;;;5004660;28;20030;-73
2023/02/17 04:52:02;;;;;;;7.03;3.23;;;;;;;;;;5008077;28;20277;-74
2023/02/17 04:54:27;;;;;;;5.72;3.42;;;;;;;;;;5009857;28;20500;-76
2023/02/17 04:56:52;;;;;;;5.73;2.93;;;;;;;;;;5007460;28;20068;-76
2023/02/17 04:59:17;;;;;;;8.27;3.00;;;;;;;;;;5010857;28;20268;-75
2023/02/17 05:01:43;;;;;;;6.55;2.90;;;;;;;;;;5009411;28;20444;-76
2023/02/17 05:04:08;;;;;;;6.43;3.23;;;;;;;;;;5016997;28;20025;-75
2023/02/17 05:06:33;;;;;;;7.80;3.80;;;;;;;;;;5009546;28;20303;-75
2023/02/17 05:08:58;;;;;;;8.10;3.10;;;;;;;;;;5015270;28;20265;-75
2023/02/17 05:11:23;;;;;;;5.90;2.58;;;;;;;;;;5007242;28;20672;-67
2023/02/17 05:13:49;;;;;;;8.02;3.35;;;;;;;;;;5006964;28;20030;-70
2023/02/17 05:16:14;;;;;;;6.47;3.17;;;;;;;;;;5006401;28;20291;-70
2023/02/17 05:18:39;;;;;;;10.17;3.57;;;;;;;;;;5009630;28;20033;-70
2023/02/17 05:21:04;;;;;;;5.40;3.00;;;;;;;;;;5005054;28;20280;-70
2023/02/17 05:23:29;;;;;;;7.03;3.35;;;;;;;;;;5002051;28;20042;-69
2023/02/17 05:25:55;;;;;;;4.15;2.53;;;;;;;;;;5004683;28;20050;-68
2023/02/17 05:28:20;;;;;;;8.80;3.50;;;;;;;;;;5006523;28;20018;-73
2023/02/17 05:30:47;;;;;;;6.20;2.90;;;;;;;;;;4996030;28;20826;-71
2023/02/17 05:33:12;;;;;;;8.52;2.97;;;;;;;;;;5009889;28;20289;-71
2023/02/17 05:35:37;;;;;;;8.63;3.35;;;;;;;;;;5002321;28;20070;-72
2023/02/17 05:38:03;;;;;;;10.53;3.17;;;;;;;;;;5008015;28;20045;-70
2023/02/17 05:40:28;;;;;;;6.45;3.17;;;;;;;;;;5010251;28;20277;-71
2023/02/17 05:42:53;;;;;;;6.43;3.23;;;;;;;;;;5004280;28;20473;-72
2023/02/17 05:45:18;;;;;;;5.77;3.13;;;;;;;;;;5000972;28;20765;-72
2023/02/17 05:47:44;;;;;;;5.67;2.83;;;;;;;;;;5004336;28;20290;-73
2023/02/17 05:50:09;;;;;;;6.40;3.60;;;;;;;;;;4999724;28;20822;-77
2023/02/17 05:52:34;;;;;;;6.25;3.00;;;;;;;;;;5006365;28;20771;-76
2023/02/17 05:54:59;;;;;;;6.15;3.20;;;;;;;;;;5009830;28;20088;-77
2023/02/17 05:57:25;;;;;;;6.25;3.65;;;;;;;;;;5004942;28;20175;-77
2023/02/17 05:59:50;;;;;;;6.28;3.00;;;;;;;;;;5006867;28;20032;-76
2023/02/17 06:02:15;;;;;;;4.90;3.10;;;;;;;;;;5006493;28;20026;-77
2023/02/17 06:04:40;;;;;;;8.67;3.73;;;;;;;;;;5009211;28;21838;-69
2023/02/17 06:07:06;;;;;;;13.97;4.53;;;;;;;;;;5003970;28;20368;-72
2023/02/17 06:09:31;;;;;;;5.37;3.10;;;;;;;;;;5006318;28;21064;-72
2023/02/17 06:11:56;;;;;;;8.97;3.70;;;;;;;;;;5014585;28;20277;-70
2023/02/17 06:14:21;;;;;;;7.47;3.77;;;;;;;;;;5003669;28;20029;-72
2023/02/17 06:16:46;;;;;;;6.78;3.67;;;;;;;;;;5002638;28;20112;-71
2023/02/17 06:19:12;;;;;;;5.53;3.37;;;;;;;;;;5007467;28;20552;-71
2023/02/17 06:21:37;;;;;;;6.68;3.13;;;;;;;;;;5005547;28;20633;-72
2023/02/17 06:24:02;;;;;;;7.70;3.10;;;;;;;;;;5005463;28;20022;-72
2023/02/17 06:26:27;;;;;;;4.68;3.00;;;;;;;;;;5012837;28;20101;-70
2023/02/17 06:28:53;;;;;;;10.55;4.32;;;;;;;;;;5006831;28;20533;-72
2023/02/17 06:31:18;;;;;;;7.10;3.53;;;;;;;;;;5007518;28;20066;-71
2023/02/17 06:33:43;;;;;;;8.60;3.13;;;;;;;;;;4999725;28;20034;-71
2023/02/17 06:36:08;;;;;;;5.90;2.63;;;;;;;;;;5010318;28;20273;-71
2023/02/17 06:38:33;;;;;;;4.75;2.85;;;;;;;;;;5016922;28;20080;-72
2023/02/17 06:40:59;;;;;;;7.63;3.25;;;;;;;;;;5009095;28;20105;-73
2023/02/17 06:43:24;;;;;;;8.27;3.83;;;;;;;;;;5011937;28;20091;-70
2023/02/17 06:45:49;;;;;;;6.17;3.07;;;;;;;;;;5008854;28;20291;-75
2023/02/17 06:48:14;;;;;;;7.65;3.40;;;;;;;;;;5007585;28;20280;-76
2023/02/17 06:50:40;;;;;;;5.93;2.93;;;;;;;;;;5010993;28;20072;-73
2023/02/17 06:53:05;;;;;;;7.60;3.88;;;;;;;;;;5010801;28;20261;-76
2023/02/17 06:55:30;;;;;;;5.97;3.20;;;;;;;;;;5002302;28;20120;-75
2023/02/17 06:57:55;;;;;;;9.43;3.38;;;;;;;;;;5012808;28;20176;-75
2023/02/17 07:00:21;;;;;;;5.68;2.92;;;;;;;;;;5012143;28;20172;-73
2023/02/17 07:02:46;;;;;;;6.72;3.00;;;;;;;;;;5004764;28;20067;-74
2023/02/17 07:05:11;;;;;;;7.40;3.17;;;;;;;;;;5010920;28;20025;-75
2023/02/17 07:07:37;;;;;;;5.03;2.70;;;;;;;;;;5010536;28;20289;-75
2023/02/17 07:10:02;;;;;;;17.90;3.97;;;;;;;;;;5013088;28;20737;-75
2023/02/17 07:12:28;;;;;;;10.70;3.15;;;;;;;;;;4997338;28;20340;-75
2023/02/17 07:14:53;;;;;;;6.78;2.67;;;;;;;;;;5009806;28;20044;-75
2023/02/17 07:17:18;;;;;;;8.70;3.73;;;;;;;;;;5006288;28;20377;-74
2023/02/17 07:19:43;;;;;;;8.40;2.70;;;;;;;;;;5008846;28;20639;-74
2023/02/17 07:22:08;;;;;;;7.97;3.43;;;;;;;;;;5010086;28;20760;-74
2023/02/17 07:24:34;;;;;;;8.05;2.85;;;;;;;;;;5009531;28;20065;-75
2023/02/17 07:26:59;;;;;;;7.53;3.00;;;;;;;;;;5004288;28;20021;-75
2023/02/17 07:29:25;;;;;;;4.72;2.40;;;;;;;;;;4998220;28;20102;-73
2023/02/17 07:31:50;;;;;;;10.05;3.10;;;;;;;;;;5004811;28;20029;-74
2023/02/17 07:34:15;;;;;;;5.90;2.80;;;;;;;;;;5003734;28;20421;-72
2023/02/17 07:36:40;;;;;;;6.87;3.00;;;;;;;;;;5009580;28;20024;-76
2023/02/17 07:39:06;;;;;;;4.37;2.53;;;;;;;;;;4997012;28;20308;-73
2023/02/17 07:41:32;;;;;;;5.80;2.95;;;;;;;;;;5005836;28;20280;-71
2023/02/17 07:43:58;;;;;;;7.15;2.42;;;;;;;;;;5011821;28;20021;-71
2023/02/17 07:46:24;;;;;;;9.48;3.85;;;;;;;;;;5007794;28;20038;-71
2023/02/17 07:48:49;;;;;;;7.72;2.95;;;;;;;;;;5008178;28;20057;-71
2023/02/17 07:51:15;;;;;;;4.65;2.42;;;;;;;;;;5004312;28;20036;-73
2023/02/17 07:53:41;;;;;;;6.20;2.85;;;;;;;;;;5003532;28;20021;-73
2023/02/17 07:56:07;;;;;;;4.78;2.88;;;;;;;;;;5006787;28;20126;-74
2023/02/17 07:58:33;;;;;;;4.93;2.58;;;;;;;;;;5011351;28;20025;-73
2023/02/17 08:01:04;;;;;;;8.75;3.15;;;;;;;;;;5003638;28;20022;-73
2023/02/17 08:03:29;;;;;;;6.88;2.58;;;;;;;;;;5010434;28;20109;-73
2023/02/17 08:05:54;;;;;;;4.90;2.67;;;;;;;;;;5012207;28;20117;-73
2023/02/17 08:13:47;;;;;;;5.18;2.95;;;;;;;;;;5006104;28;20126;-73
2023/02/17 08:16:12;;;;;;;6.03;2.50;;;;;;;;;;5003215;28;20548;-72
2023/02/17 08:18:39;;;;;;;4.13;2.17;;;;;;;;;;5011113;28;20332;-74
2023/02/17 08:21:04;;;;;;;7.37;2.67;;;;;;;;;;5010085;28;20021;-74
2023/02/17 08:23:29;;;;;;;10.75;2.72;;;;;;;;;;5009565;28;20026;-74
2023/02/17 08:25:58;;;;;;;5.77;2.40;;;;;;;;;;5003384;28;20053;-75
2023/02/17 08:28:23;;;;;;;3.80;2.17;;;;;;;;;;4999031;28;20278;-74
2023/02/17 08:30:48;;;;;;;5.57;2.45;;;;;;;;;;4999575;28;20044;-76
2023/02/17 08:33:16;;;;;;;5.10;2.47;;;;;;;;;;5007022;28;20032;-74
2023/02/17 08:35:42;;;;;;;5.45;2.78;;;;;;;;;;5002181;28;20029;-70
2023/02/17 08:38:07;;;;;;;5.03;3.15;;;;;;;;;;5004563;28;20022;-71
2023/02/17 08:40:32;;;;;;;4.17;2.30;;;;;;;;;;5004019;28;20088;-71
2023/02/17 08:42:58;;;;;;;4.67;2.03;;;;;;;;;;5005061;28;20269;-72
2023/02/17 08:45:23;;;;;;;4.47;2.72;;;;;;;;;;5005542;28;20272;-70
2023/02/17 08:47:49;;;;;;;4.07;2.30;;;;;;;;;;5001011;28;20038;-70
2023/02/17 08:50:15;;;;;;;6.63;2.88;;;;;;;;;;5007568;28;20287;-72
2023/02/17 08:52:41;;;;;;;6.43;2.92;;;;;;;;;;5014598;28;20022;-70
2023/02/17 08:55:06;;;;;;;8.23;2.42;;;;;;;;;;5004189;28;20018;-71
2023/02/17 08:57:31;;;;;;;8.38;2.70;;;;;;;;;;5002629;28;20022;-73
2023/02/17 08:59:56;;;;;;;5.13;2.40;;;;;;;;;;5006628;28;20037;-72
2023/02/17 09:02:22;;;;;;;6.83;2.30;;;;;;;;;;5008347;28;20107;-72
2023/02/17 09:04:47;;;;;;;3.50;2.00;;;;;;;;;;5001944;28;20420;-73
2023/02/17 09:07:13;;;;;;;9.30;2.00;;;;;;;;;;5005853;28;20508;-72
2023/02/17 09:09:39;;;;;;;5.43;2.53;;;;;;;;;;5001251;28;20031;-68
2023/02/17 09:12:05;;;;;;;7.68;3.38;;;;;;;;;;5001779;28;20030;-71
2023/02/17 09:14:30;;;;;;;4.60;2.10;;;;;;;;;;5007373;28;20024;-72
2023/02/17 09:16:55;;;;;;;4.40;2.47;;;;;;;;;;5008365;28;20025;-71
2023/02/17 09:19:21;;;;;;;5.88;2.55;;;;;;;;;;5010738;28;20277;-71
2023/02/17 09:21:47;;;;;;;4.18;2.17;;;;;;;;;;5008823;28;20387;-71
2023/02/17 09:24:12;;;;;;;2.63;1.77;;;;;;;;;;5011994;28;20025;-72
2023/02/17 09:26:37;;;;;;;7.07;2.17;;;;;;;;;;5003611;28;20026;-71
2023/02/17 09:29:03;;;;;;;5.88;1.95;;;;;;;;;;5001498;28;20069;-72
2023/02/17 09:31:29;;;;;;;8.20;2.55;;;;;;;;;;4999568;28;20038;-72
2023/02/17 09:33:54;;;;;;;3.92;1.70;;;;;;;;;;5005885;28;20054;-74
2023/02/17 09:36:21;;;;;;;6.55;2.17;;;;;;;;;;5002174;28;20030;-74
2023/02/17 09:38:47;;;;;;;3.28;1.88;;;;;;;;;;4995903;28;20421;-74
2023/02/17 09:41:21;;;;;;;4.00;1.88;;;;;;;;;;5004171;28;20030;-75
2023/02/17 09:43:46;;;;;;;5.32;2.08;;;;;;;;;;5003630;28;20030;-74
2023/02/17 09:46:35;;;;;;;6.78;2.08;;;;;;;;;;5005121;28;20394;-67
2023/02/17 09:49:04;;;;;;;3.90;2.15;;;;;;;;;;4994953;28;20057;-73
2023/02/17 09:51:34;;;;;;;4.65;1.85;;;;;;;;;;5005669;28;20289;-73
2023/02/17 09:54:04;;;;;;;4.05;2.20;;;;;;;;;;5004070;28;20029;-74
2023/02/17 09:56:35;;;;;;;5.18;2.08;;;;;;;;;;5014666;28;20026;-73
2023/02/17 09:59:15;;;;;;;3.42;2.10;;;;;;;;;;5009903;28;20025;-73
2023/02/17 10:01:40;;;;;;;4.18;1.55;;;;;;;;;;4999422;28;20029;-74
2023/02/17 10:04:09;;;;;;;2.88;2.00;;;;;;;;;;5000124;28;20038;-70
2023/02/17 10:06:37;;;;;;;3.20;1.87;;;;;;;;;;5005039;28;20038;-70
2023/02/17 10:09:10;;;;;;;4.97;2.05;;;;;;;;;;4999167;28;20467;-74
2023/02/17 10:11:38;;;;;;;4.57;2.13;;;;;;;;;;5004428;28;20077;-73
2023/02/17 10:14:22;;;;;;;3.58;2.08;;;;;;;;;;5003202;28;20778;-72
2023/02/17 10:16:50;;;;;;;1.98;1.60;;;;;;;;;;5008918;28;20060;-74
2023/02/17 10:19:24;;;;;;;5.32;2.05;;;;;;;;;;5002334;28;20153;-71
2023/02/17 10:22:04;;;;;;;5.40;1.88;;;;;;;;;;5004686;28;20030;-71
2023/02/17 10:24:29;;;;;;;3.53;1.90;;;;;;;;;;5007377;28;20014;-68
2023/02/17 10:27:13;;;;;;;3.90;1.77;;;;;;;;;;5010440;28;20041;-72
2023/02/17 10:29:39;;;;;;;5.40;2.40;;;;;;;;;;5007585;28;20272;-72
2023/02/17 10:32:13;;;;;;;5.72;2.15;;;;;;;;;;5009938;28;20030;-71
2023/02/17 10:34:52;;;;;;;3.17;1.83;;;;;;;;;;5000804;28;20097;-72
2023/02/17 10:37:23;;;;;;;4.53;1.52;;;;;;;;;;5006145;28;20053;-70
2023/02/17 10:39:53;;;;;;;2.35;1.50;;;;;;;;;;5009803;28;20104;-72
2023/02/17 10:42:23;;;;;;;3.53;2.22;;;;;;;;;;5011002;28;20022;-71
2023/02/17 10:44:50;;;;;;;5.55;2.50;;;;;;;;;;5008525;28;20136;-72
2023/02/17 10:47:15;;;;;;;5.80;1.83;;;;;;;;;;5008470;28;20048;-73
2023/02/17 10:49:44;;;;;;;4.47;1.50;;;;;;;;;;5008475;28;20022;-75
2023/02/17 10:52:17;;;;;;;2.78;1.38;;;;;;;;;;5005682;28;20033;-75
2023/02/17 10:54:46;;;;;;;2.63;1.83;;;;;;;;;;5008578;28;20101;-77
2023/02/17 10:57:13;;;;;;;2.50;1.50;;;;;;;;;;5011011;28;20022;-75
2023/02/17 10:59:40;;;;;;;5.60;1.95;;;;;;;;;;5016292;28;20026;-70
2023/02/17 11:02:31;;;;;;;2.58;1.65;;;;;;;;;;5000175;28;20030;-71
2023/02/17 11:04:58;;;;;;;3.08;1.20;;;;;;;;;;5002684;28;20109;-73
2023/02/17 11:07:34;;;;;;;3.53;1.63;;;;;;;;;;5007886;28;20034;-72
2023/02/17 11:10:02;;;;;;;2.05;1.60;;;;;;;;;;5004161;28;20030;-73
2023/02/17 11:12:31;;;;;;;4.72;1.50;;;;;;;;;;5004835;28;20032;-72
2023/02/17 11:14:57;;;;;;;;;;;;;;;;;;5006834;28;20026;-74
2023/02/17 11:17:37;;;;;;;1.50;1.17;;;;;;;;;;5008373;28;19909;-70
2023/02/17 11:20:28;;;;;;;2.30;1.10;;;;;;;;;;5005478;28;20022;-71
2023/02/17 11:23:02;;;;;;;3.05;1.17;;;;;;;;;;5006710;28;20030;-68
2023/02/17 11:25:31;;;;;;;3.72;1.35;;;;;;;;;;5006421;28;20022;-69
2023/02/17 11:28:00;;;;;;;1.42;1.17;;;;;;;;;;5003837;28;20084;-70
2023/02/17 11:30:26;;;;;;;2.63;1.10;;;;;;;;;;5012329;28;20026;-70
2023/02/17 11:32:53;;;;;;;2.40;1.40;;;;;;;;;;5009988;28;20109;-70
2023/02/17 11:35:40;;;;;;;3.10;1.30;;;;;;;;;;5006745;28;20121;-69
2023/02/17 11:38:16;;;;;;;1.90;1.15;;;;;;;;;;5003318;28;20044;-71
2023/02/17 11:40:50;;;;;;;1.90;1.08;;;;;;;;;;5005337;28;20056;-73
2023/02/17 11:43:17;;;;;;;2.95;1.42;;;;;;;;;;4998300;28;20038;-71
2023/02/17 11:45:48;;;;;;;2.15;1.23;;;;;;;;;;5004860;28;20080;-72
2023/02/17 11:48:16;;;;;;;1.10;0.88;;;;;;;;;;5002646;28;20481;-72
2023/02/17 11:51:04;;;;;;;2.40;1.27;;;;;;;;;;5006055;28;20482;-74
2023/02/17 11:53:48;;;;;;;4.95;1.10;;;;;;;;;;5001083;28;20068;-74
2023/02/17 11:56:16;;;;;;;1.10;0.90;;;;;;;;;;5003678;28;20377;-72
2023/02/17 11:58:44;;;;;;;2.42;1.05;;;;;;;;;;5005627;28;20044;-73
2023/02/17 12:01:20;;;;;;;2.78;1.20;;;;;;;;;;5006820;28;20018;-71
2023/02/17 12:03:57;;;;;;;2.97;1.15;;;;;;;;;;5018284;28;20033;-72
2023/02/17 12:06:35;;;;;;;2.08;1.10;;;;;;;;;;5009757;28;20076;-74
2023/02/17 12:09:03;;;;;;;2.75;1.30;;;;;;;;;;5003699;28;20062;-71
2023/02/17 12:11:47;;;;;;;1.77;1.10;;;;;;;;;;5011489;28;20493;-72
2023/02/17 12:14:30;;;;;;;3.13;1.20;;;;;;;;;;5006061;28;20029;-66
2023/02/17 12:17:13;;;;;;;2.15;1.20;;;;;;;;;;5008795;28;20030;-72
2023/02/17 12:20:14;;;;;;;2.30;1.23;;;;;;;;;;5007272;28;20026;-71
2023/02/17 12:23:02;;;;;;;2.85;1.83;;;;;;;;;;4949417;28;20069;-72
2023/02/17 12:25:32;;;;;;;1.00;0.90;;;;;;;;;;5000942;28;20088;-72
2023/02/17 12:28:04;;;;;;;2.40;1.50;;;;;;;;;;5002436;28;20045;-74
2023/02/17 12:30:38;;;;;;;1.67;1.00;;;;;;;;;;5011961;28;20021;-72
2023/02/17 12:33:09;;;;;;;1.58;1.10;;;;;;;;;;5009101;28;20030;-75
2023/02/17 12:35:37;;;;;;;2.45;1.55;;;;;;;;;;5016300;28;20060;-73
2023/02/17 12:38:07;;;;;;;1.15;1.00;;;;;;;;;;5017669;28;20029;-73
2023/02/17 12:40:35;;;;;;;2.40;1.23;;;;;;;;;;5007538;28;20365;-71
2023/02/17 12:43:05;;;;;;;4.35;1.25;;;;;;;;;;5010153;28;20500;-73
2023/02/17 12:45:30;;;;;;;;;;;;;;;;;;5009597;28;20026;-74
2023/02/17 12:48:10;;;;;;;3.90;1.00;;;;;;;;;;5006757;28;19932;-73
2023/02/17 12:50:46;;;;;;;3.78;1.00;;;;;;;;;;5003305;28;20037;-77
2023/02/17 12:53:15;;;;;;;0.95;0.88;;;;;;;;;;5009996;28;20030;-74
2023/02/17 12:55:45;;;;;;;;;;;;;;;;;;5005774;28;20014;-72
2023/02/17 12:58:12;;;;;;;1.65;1.27;;;;;;;;;;5004097;28;20403;-74
2023/02/17 13:00:57;;;;;;;2.35;1.33;;;;;;;;;;5012204;28;20029;-74
2023/02/17 13:03:23;;;;;;;2.75;1.33;;;;;;;;;;5007499;28;20267;-73
2023/02/17 13:06:01;;;;;;;2.78;1.17;;;;;;;;;;5002543;28;20033;-75
2023/02/17 13:08:32;;;;;;;2.15;1.10;;;;;;;;;;5010962;28;20031;-76
2023/02/17 13:11:02;;;;;;;2.75;1.30;;;;;;;;;;5012684;28;20026;-75
2023/02/17 13:13:29;;;;;;;1.40;0.90;;;;;;;;;;5010545;28;20068;-74
2023/02/17 13:16:13;;;;;;;2.13;1.25;;;;;;;;;;5007504;28;20076;-74
2023/02/17 13:18:42;;;;;;;4.90;1.70;;;;;;;;;;5005310;28;20382;-75
2023/02/17 13:21:27;;;;;;;1.77;1.15;;;;;;;;;;5005977;28;20044;-73
2023/02/17 13:24:01;;;;;;;1.77;1.30;;;;;;;;;;5004865;28;20040;-74
2023/02/17 13:26:34;;;;;;;3.30;1.05;;;;;;;;;;5010376;28;20041;-70
2023/02/17 13:29:28;;;;;;;1.35;0.90;;;;;;;;;;5007753;28;20028;-72
2023/02/17 13:31:58;;;;;;;1.33;1.23;;;;;;;;;;4989477;28;20026;-70
2023/02/17 13:34:25;;;;;;;2.90;1.02;;;;;;;;;;5003681;28;20025;-70
2023/02/17 13:36:50;;;;;;;1.35;0.93;;;;;;;;;;5007378;28;20029;-70
2023/02/17 13:39:27;;;;;;;1.50;0.93;;;;;;;;;;5011685;28;20029;-69
2023/02/17 13:41:57;;;;;;;1.52;0.95;;;;;;;;;;4999771;28;20033;-72
2023/02/17 13:44:29;;;;;;;1.63;1.35;;;;;;;;;;5009455;28;20034;-70
2023/02/17 13:46:57;;;;;;;2.42;1.00;;;;;;;;;;5009205;28;20264;-74
2023/02/17 13:49:26;;;;;;;1.65;1.13;;;;;;;;;;5000539;28;20603;-72
2023/02/17 13:51:51;;;;;;;1.75;1.10;;;;;;;;;;5008889;28;20033;-71
2023/02/17 13:54:19;;;;;;;2.33;1.13;;;;;;;;;;5011142;28;20430;-72
2023/02/17 13:56:48;;;;;;;1.95;1.38;;;;;;;;;;5005634;28;20137;-73
2023/02/17 13:59:18;;;;;;;2.10;1.60;;;;;;;;;;5001832;28;20023;-74
2023/02/17 14:01:43;;;;;;;;;;;;;;;;;;5003273;28;20106;-71
2023/02/17 14:04:35;;;;;;;2.07;1.00;;;;;;;;;;5003245;28;20349;-73
2023/02/17 14:07:03;;;;;;;3.28;1.38;;;;;;;;;;4997841;28;20045;-75
2023/02/17 14:09:30;;;;;;;2.85;1.20;;;;;;;;;;5005498;28;20036;-72
2023/02/17 14:11:56;;;;;;;1.48;1.25;;;;;;;;;;5012566;28;20025;-71
2023/02/17 14:14:28;;;;;;;1.55;1.25;;;;;;;;;;5011198;28;20044;-72
2023/02/17 14:16:58;;;;;;;2.50;1.55;;;;;;;;;;5014502;28;20045;-73
2023/02/17 14:19:23;;;;;;;;;;;;;;;;;;5009290;28;20527;-74
2023/02/17 14:21:59;;;;;;;1.20;1.10;;;;;;;;;;5004372;28;19910;-72
2023/02/17 14:24:29;;;;;;;1.67;1.20;;;;;;;;;;5012798;28;20034;-76
2023/02/17 14:26:57;;;;;;;2.83;1.25;;;;;;;;;;5003343;28;20038;-76
2023/02/17 14:29:22;;;;;;;1.83;1.15;;;;;;;;;;5007874;28;20045;-75
2023/02/17 14:31:48;;;;;;;2.33;1.20;;;;;;;;;;5008862;28;20559;-75
2023/02/17 14:34:20;;;;;;;2.85;1.15;;;;;;;;;;5002370;28;20269;-74
2023/02/17 14:36:46;;;;;;;3.50;1.10;;;;;;;;;;5012016;28;20125;-76
2023/02/17 14:39:12;;;;;;;3.42;1.52;;;;;;;;;;5018308;28;20524;-75
2023/02/17 14:41:38;;;;;;;3.60;1.17;;;;;;;;;;5011907;28;20480;-70
2023/02/17 14:44:04;;;;;;;2.00;1.13;;;;;;;;;;5012633;28;20022;-68
2023/02/17 14:46:30;;;;;;;3.47;1.25;;;;;;;;;;5006713;28;20296;-69
2023/02/17 14:48:55;;;;;;;1.95;1.45;;;;;;;;;;5006209;28;20544;-67
2023/02/17 14:51:22;;;;;;;3.10;1.00;;;;;;;;;;5005748;28;20469;-67
2023/02/17 14:53:48;;;;;;;5.82;2.17;;;;;;;;;;5012113;28;20273;-69